sensor_id;sensor_type;location;lat;lon;timestamp;P1;durP1;ratioP1;P2;durP2;ratioP2
25752;SDS011;13600;50.816;4.416;2022-11-03T00:04:02;16.40;;;3.03;;
25752;SDS011;13600;50.816;4.416;2022-11-03T00:06:32;14.63;;;2.70;;
25752;SDS011;13600;50.816;4.416;2022-11-03T00:09:00;12.95;;;2.33;;
25752;SDS011;13600;50.816;4.416;2022-11-03T00:11:26;24.42;;;2.80;;
25752;SDS011;13600;50.816;4.416;2022-11-03T00:13:52;18.00;;;2.80;;
25752;SDS011;13600;50.816;4.416;2022-11-03T00:16:18;17.95;;;2.97;;
25752;SDS011;13600;50.816;4.416;2022-11-03T00:18:43;20.48;;;2.97;;
25752;SDS011;13600;50.816;4.416;2022-11-03T00:21:10;18.77;;;2.90;;
25752;SDS011;13600;50.816;4.416;2022-11-03T00:23:39;21.88;;;3.22;;
25752;SDS011;13600;50.816;4.416;2022-11-03T00:28:37;14.05;;;2.97;;
25752;SDS011;13600;50.816;4.416;2022-11-03T00:31:05;18.48;;;2.85;;
25752;SDS011;13600;50.816;4.416;2022-11-03T00:33:33;18.75;;;2.95;;
25752;SDS011;13600;50.816;4.416;2022-11-03T00:35:59;18.15;;;3.30;;
25752;SDS011;13600;50.816;4.416;2022-11-03T00:38:26;13.50;;;2.38;;
25752;SDS011;13600;50.816;4.416;2022-11-03T00:40:55;16.65;;;2.55;;
25752;SDS011;13600;50.816;4.416;2022-11-03T00:43:22;24.92;;;3.13;;
25752;SDS011;13600;50.816;4.416;2022-11-03T00:45:49;17.58;;;2.58;;
25752;SDS011;13600;50.816;4.416;2022-11-03T00:48:14;11.73;;;2.60;;
25752;SDS011;13600;50.816;4.416;2022-11-03T00:53:25;20.90;;;2.58;;
25752;SDS011;13600;50.816;4.416;2022-11-03T00:55:51;16.63;;;2.75;;
25752;SDS011;13600;50.816;4.416;2022-11-03T00:58:16;18.05;;;2.97;;
25752;SDS011;13600;50.816;4.416;2022-11-03T01:00:42;18.35;;;2.47;;
25752;SDS011;13600;50.816;4.416;2022-11-03T01:03:07;12.93;;;2.38;;
25752;SDS011;13600;50.816;4.416;2022-11-03T01:05:33;14.90;;;2.67;;
25752;SDS011;13600;50.816;4.416;2022-11-03T01:08:17;19.70;;;3.40;;
25752;SDS011;13600;50.816;4.416;2022-11-03T01:10:43;18.33;;;3.17;;
25752;SDS011;13600;50.816;4.416;2022-11-03T01:13:28;16.30;;;2.90;;
25752;SDS011;13600;50.816;4.416;2022-11-03T01:15:57;14.15;;;2.35;;
25752;SDS011;13600;50.816;4.416;2022-11-03T01:18:23;15.48;;;2.70;;
25752;SDS011;13600;50.816;4.416;2022-11-03T01:20:55;16.38;;;2.50;;
25752;SDS011;13600;50.816;4.416;2022-11-03T01:23:21;18.38;;;2.70;;
25752;SDS011;13600;50.816;4.416;2022-11-03T01:25:49;20.35;;;3.10;;
25752;SDS011;13600;50.816;4.416;2022-11-03T01:28:15;20.20;;;2.83;;
25752;SDS011;13600;50.816;4.416;2022-11-03T01:30:41;12.60;;;2.50;;
25752;SDS011;13600;50.816;4.416;2022-11-03T01:33:06;12.25;;;2.03;;
25752;SDS011;13600;50.816;4.416;2022-11-03T01:35:32;18.00;;;2.72;;
25752;SDS011;13600;50.816;4.416;2022-11-03T01:37:57;18.70;;;2.60;;
25752;SDS011;13600;50.816;4.416;2022-11-03T01:40:23;17.02;;;2.40;;
25752;SDS011;13600;50.816;4.416;2022-11-03T01:42:49;13.95;;;2.25;;
25752;SDS011;13600;50.816;4.416;2022-11-03T01:45:14;15.45;;;2.58;;
25752;SDS011;13600;50.816;4.416;2022-11-03T01:47:40;12.70;;;2.03;;
25752;SDS011;13600;50.816;4.416;2022-11-03T01:50:09;14.30;;;2.88;;
25752;SDS011;13600;50.816;4.416;2022-11-03T01:52:39;11.40;;;2.67;;
25752;SDS011;13600;50.816;4.416;2022-11-03T01:55:14;21.15;;;2.95;;
25752;SDS011;13600;50.816;4.416;2022-11-03T01:58:14;13.48;;;2.88;;
25752;SDS011;13600;50.816;4.416;2022-11-03T02:00:44;16.00;;;2.60;;
25752;SDS011;13600;50.816;4.416;2022-11-03T02:03:12;12.90;;;2.53;;
25752;SDS011;13600;50.816;4.416;2022-11-03T02:05:39;18.15;;;2.70;;
25752;SDS011;13600;50.816;4.416;2022-11-03T02:08:10;16.33;;;2.53;;
25752;SDS011;13600;50.816;4.416;2022-11-03T02:10:41;9.57;;;2.17;;
25752;SDS011;13600;50.816;4.416;2022-11-03T02:13:11;8.07;;;1.77;;
25752;SDS011;13600;50.816;4.416;2022-11-03T02:15:45;15.98;;;2.35;;
25752;SDS011;13600;50.816;4.416;2022-11-03T02:18:12;9.38;;;2.10;;
25752;SDS011;13600;50.816;4.416;2022-11-03T02:20:39;15.82;;;2.55;;
25752;SDS011;13600;50.816;4.416;2022-11-03T02:23:12;14.10;;;2.30;;
25752;SDS011;13600;50.816;4.416;2022-11-03T02:28:12;13.77;;;2.08;;
25752;SDS011;13600;50.816;4.416;2022-11-03T02:38:37;16.67;;;2.33;;
25752;SDS011;13600;50.816;4.416;2022-11-03T02:41:10;15.23;;;2.20;;
25752;SDS011;13600;50.816;4.416;2022-11-03T02:43:37;18.13;;;2.10;;
25752;SDS011;13600;50.816;4.416;2022-11-03T02:46:04;16.92;;;2.78;;
25752;SDS011;13600;50.816;4.416;2022-11-03T02:48:31;13.38;;;2.47;;
25752;SDS011;13600;50.816;4.416;2022-11-03T02:50:56;12.15;;;2.15;;
25752;SDS011;13600;50.816;4.416;2022-11-03T02:53:22;13.82;;;2.53;;
25752;SDS011;13600;50.816;4.416;2022-11-03T02:55:54;14.98;;;2.53;;
25752;SDS011;13600;50.816;4.416;2022-11-03T02:58:56;16.88;;;2.75;;
25752;SDS011;13600;50.816;4.416;2022-11-03T03:01:27;16.15;;;2.92;;
25752;SDS011;13600;50.816;4.416;2022-11-03T03:03:57;19.33;;;2.33;;
25752;SDS011;13600;50.816;4.416;2022-11-03T03:06:38;14.20;;;2.42;;
25752;SDS011;13600;50.816;4.416;2022-11-03T03:09:16;17.67;;;2.88;;
25752;SDS011;13600;50.816;4.416;2022-11-03T03:11:45;15.80;;;2.20;;
25752;SDS011;13600;50.816;4.416;2022-11-03T03:14:14;20.67;;;3.33;;
25752;SDS011;13600;50.816;4.416;2022-11-03T03:22:06;16.55;;;2.53;;
25752;SDS011;13600;50.816;4.416;2022-11-03T03:24:55;15.10;;;2.35;;
25752;SDS011;13600;50.816;4.416;2022-11-03T03:27:27;17.88;;;2.92;;
25752;SDS011;13600;50.816;4.416;2022-11-03T03:29:56;18.92;;;2.80;;
25752;SDS011;13600;50.816;4.416;2022-11-03T03:32:25;15.13;;;2.72;;
25752;SDS011;13600;50.816;4.416;2022-11-03T03:34:54;15.05;;;2.72;;
25752;SDS011;13600;50.816;4.416;2022-11-03T03:37:24;14.80;;;2.80;;
25752;SDS011;13600;50.816;4.416;2022-11-03T03:39:53;13.90;;;2.35;;
25752;SDS011;13600;50.816;4.416;2022-11-03T03:42:23;15.10;;;2.78;;
25752;SDS011;13600;50.816;4.416;2022-11-03T03:44:52;19.90;;;3.03;;
25752;SDS011;13600;50.816;4.416;2022-11-03T03:47:24;13.32;;;2.35;;
25752;SDS011;13600;50.816;4.416;2022-11-03T03:49:52;14.87;;;2.57;;
25752;SDS011;13600;50.816;4.416;2022-11-03T03:52:19;18.52;;;2.75;;
25752;SDS011;13600;50.816;4.416;2022-11-03T03:54:45;19.52;;;2.40;;
25752;SDS011;13600;50.816;4.416;2022-11-03T03:57:12;12.75;;;2.83;;
25752;SDS011;13600;50.816;4.416;2022-11-03T03:59:40;17.98;;;2.58;;
25752;SDS011;13600;50.816;4.416;2022-11-03T04:02:07;14.35;;;2.53;;
25752;SDS011;13600;50.816;4.416;2022-11-03T04:04:33;26.38;;;2.95;;
25752;SDS011;13600;50.816;4.416;2022-11-03T04:06:58;13.75;;;2.95;;
25752;SDS011;13600;50.816;4.416;2022-11-03T04:09:42;24.70;;;2.63;;
25752;SDS011;13600;50.816;4.416;2022-11-03T04:12:08;20.85;;;3.20;;
25752;SDS011;13600;50.816;4.416;2022-11-03T04:14:53;13.43;;;2.55;;
25752;SDS011;13600;50.816;4.416;2022-11-03T04:17:37;12.60;;;2.58;;
25752;SDS011;13600;50.816;4.416;2022-11-03T04:20:25;16.35;;;2.80;;
25752;SDS011;13600;50.816;4.416;2022-11-03T04:25:35;11.30;;;2.25;;
25752;SDS011;13600;50.816;4.416;2022-11-03T04:28:01;13.50;;;2.70;;
25752;SDS011;13600;50.816;4.416;2022-11-03T04:30:36;14.25;;;2.97;;
25752;SDS011;13600;50.816;4.416;2022-11-03T04:33:01;17.70;;;2.85;;
25752;SDS011;13600;50.816;4.416;2022-11-03T04:35:29;15.27;;;2.92;;
25752;SDS011;13600;50.816;4.416;2022-11-03T04:37:55;18.13;;;3.13;;
25752;SDS011;13600;50.816;4.416;2022-11-03T04:40:25;15.80;;;3.00;;
25752;SDS011;13600;50.816;4.416;2022-11-03T04:42:52;14.32;;;2.38;;
25752;SDS011;13600;50.816;4.416;2022-11-03T04:47:49;12.63;;;2.38;;
25752;SDS011;13600;50.816;4.416;2022-11-03T04:50:17;20.08;;;3.00;;
25752;SDS011;13600;50.816;4.416;2022-11-03T04:52:45;18.63;;;3.20;;
25752;SDS011;13600;50.816;4.416;2022-11-03T04:55:13;15.93;;;2.72;;
25752;SDS011;13600;50.816;4.416;2022-11-03T04:57:41;18.73;;;3.30;;
25752;SDS011;13600;50.816;4.416;2022-11-03T05:00:12;14.18;;;2.80;;
25752;SDS011;13600;50.816;4.416;2022-11-03T05:02:41;13.65;;;2.80;;
25752;SDS011;13600;50.816;4.416;2022-11-03T05:05:14;15.93;;;2.97;;
25752;SDS011;13600;50.816;4.416;2022-11-03T05:07:48;17.23;;;3.50;;
25752;SDS011;13600;50.816;4.416;2022-11-03T05:10:18;20.05;;;3.42;;
25752;SDS011;13600;50.816;4.416;2022-11-03T05:12:48;16.98;;;3.00;;
25752;SDS011;13600;50.816;4.416;2022-11-03T05:17:54;20.15;;;2.75;;
25752;SDS011;13600;50.816;4.416;2022-11-03T05:20:26;17.30;;;3.05;;
25752;SDS011;13600;50.816;4.416;2022-11-03T05:22:55;13.55;;;2.90;;
25752;SDS011;13600;50.816;4.416;2022-11-03T05:25:39;12.20;;;3.03;;
25752;SDS011;13600;50.816;4.416;2022-11-03T05:28:09;16.10;;;3.15;;
25752;SDS011;13600;50.816;4.416;2022-11-03T05:30:41;20.38;;;3.30;;
25752;SDS011;13600;50.816;4.416;2022-11-03T05:33:24;21.90;;;3.67;;
25752;SDS011;13600;50.816;4.416;2022-11-03T05:35:52;16.92;;;3.50;;
25752;SDS011;13600;50.816;4.416;2022-11-03T05:38:19;14.90;;;2.95;;
25752;SDS011;13600;50.816;4.416;2022-11-03T05:40:49;16.02;;;3.20;;
25752;SDS011;13600;50.816;4.416;2022-11-03T05:43:17;18.17;;;3.22;;
25752;SDS011;13600;50.816;4.416;2022-11-03T05:45:44;18.02;;;3.08;;
25752;SDS011;13600;50.816;4.416;2022-11-03T05:48:20;22.50;;;3.60;;
25752;SDS011;13600;50.816;4.416;2022-11-03T05:50:51;22.48;;;3.15;;
25752;SDS011;13600;50.816;4.416;2022-11-03T05:53:30;20.70;;;3.47;;
25752;SDS011;13600;50.816;4.416;2022-11-03T05:56:00;19.75;;;3.25;;
25752;SDS011;13600;50.816;4.416;2022-11-03T05:58:30;17.92;;;3.83;;
25752;SDS011;13600;50.816;4.416;2022-11-03T06:01:02;11.18;;;2.67;;
25752;SDS011;13600;50.816;4.416;2022-11-03T06:03:34;15.98;;;3.15;;
25752;SDS011;13600;50.816;4.416;2022-11-03T06:06:01;18.90;;;3.30;;
25752;SDS011;13600;50.816;4.416;2022-11-03T06:08:35;17.10;;;2.83;;
25752;SDS011;13600;50.816;4.416;2022-11-03T06:11:01;18.10;;;3.00;;
25752;SDS011;13600;50.816;4.416;2022-11-03T06:13:33;22.13;;;3.90;;
25752;SDS011;13600;50.816;4.416;2022-11-03T06:16:03;18.40;;;4.35;;
25752;SDS011;13600;50.816;4.416;2022-11-03T06:18:37;17.55;;;4.07;;
25752;SDS011;13600;50.816;4.416;2022-11-03T06:21:08;20.00;;;3.47;;
25752;SDS011;13600;50.816;4.416;2022-11-03T06:23:38;20.10;;;4.25;;
25752;SDS011;13600;50.816;4.416;2022-11-03T06:26:06;27.38;;;3.78;;
25752;SDS011;13600;50.816;4.416;2022-11-03T06:28:43;23.38;;;4.15;;
25752;SDS011;13600;50.816;4.416;2022-11-03T06:31:16;16.60;;;3.72;;
25752;SDS011;13600;50.816;4.416;2022-11-03T06:33:51;21.02;;;3.40;;
25752;SDS011;13600;50.816;4.416;2022-11-03T06:36:21;22.92;;;4.15;;
25752;SDS011;13600;50.816;4.416;2022-11-03T06:38:54;20.27;;;3.60;;
25752;SDS011;13600;50.816;4.416;2022-11-03T06:41:28;22.27;;;3.45;;
25752;SDS011;13600;50.816;4.416;2022-11-03T06:43:57;17.30;;;3.38;;
25752;SDS011;13600;50.816;4.416;2022-11-03T06:46:26;18.60;;;3.88;;
25752;SDS011;13600;50.816;4.416;2022-11-03T06:48:52;15.55;;;3.30;;
25752;SDS011;13600;50.816;4.416;2022-11-03T06:51:25;17.05;;;3.58;;
25752;SDS011;13600;50.816;4.416;2022-11-03T06:53:52;19.90;;;3.40;;
25752;SDS011;13600;50.816;4.416;2022-11-03T06:56:22;17.73;;;3.97;;
25752;SDS011;13600;50.816;4.416;2022-11-03T06:58:53;13.13;;;3.08;;
25752;SDS011;13600;50.816;4.416;2022-11-03T07:01:21;19.13;;;3.90;;
25752;SDS011;13600;50.816;4.416;2022-11-03T07:03:48;12.45;;;2.75;;
25752;SDS011;13600;50.816;4.416;2022-11-03T07:06:18;18.83;;;3.75;;
25752;SDS011;13600;50.816;4.416;2022-11-03T07:08:54;22.50;;;4.07;;
25752;SDS011;13600;50.816;4.416;2022-11-03T07:11:23;15.07;;;2.95;;
25752;SDS011;13600;50.816;4.416;2022-11-03T07:14:02;14.48;;;3.00;;
25752;SDS011;13600;50.816;4.416;2022-11-03T07:24:46;13.02;;;2.65;;
25752;SDS011;13600;50.816;4.416;2022-11-03T07:27:21;16.20;;;2.88;;
25752;SDS011;13600;50.816;4.416;2022-11-03T07:29:56;20.92;;;3.20;;
25752;SDS011;13600;50.816;4.416;2022-11-03T07:32:24;14.32;;;3.03;;
25752;SDS011;13600;50.816;4.416;2022-11-03T07:34:59;13.20;;;2.45;;
25752;SDS011;13600;50.816;4.416;2022-11-03T07:37:46;15.60;;;3.03;;
25752;SDS011;13600;50.816;4.416;2022-11-03T07:40:15;15.70;;;3.55;;
25752;SDS011;13600;50.816;4.416;2022-11-03T07:42:43;17.05;;;3.10;;
25752;SDS011;13600;50.816;4.416;2022-11-03T07:48:33;14.00;;;2.88;;
25752;SDS011;13600;50.816;4.416;2022-11-03T07:51:19;12.27;;;2.65;;
25752;SDS011;13600;50.816;4.416;2022-11-03T07:53:48;13.52;;;2.42;;
25752;SDS011;13600;50.816;4.416;2022-11-03T07:56:26;15.10;;;3.05;;
25752;SDS011;13600;50.816;4.416;2022-11-03T08:01:28;10.27;;;2.40;;
25752;SDS011;13600;50.816;4.416;2022-11-03T08:04:00;13.63;;;2.78;;
25752;SDS011;13600;50.816;4.416;2022-11-03T08:06:29;10.80;;;2.30;;
25752;SDS011;13600;50.816;4.416;2022-11-03T08:08:55;13.18;;;2.15;;
25752;SDS011;13600;50.816;4.416;2022-11-03T08:11:21;14.68;;;2.92;;
25752;SDS011;13600;50.816;4.416;2022-11-03T08:13:48;13.68;;;2.50;;
25752;SDS011;13600;50.816;4.416;2022-11-03T08:16:17;15.95;;;2.63;;
25752;SDS011;13600;50.816;4.416;2022-11-03T08:18:44;13.90;;;2.97;;
25752;SDS011;13600;50.816;4.416;2022-11-03T08:21:10;15.77;;;2.28;;
25752;SDS011;13600;50.816;4.416;2022-11-03T08:23:36;15.45;;;2.63;;
25752;SDS011;13600;50.816;4.416;2022-11-03T08:26:02;11.27;;;2.70;;
25752;SDS011;13600;50.816;4.416;2022-11-03T08:28:28;21.50;;;5.15;;
25752;SDS011;13600;50.816;4.416;2022-11-03T08:30:53;12.82;;;5.13;;
25752;SDS011;13600;50.816;4.416;2022-11-03T08:33:19;12.10;;;3.28;;
25752;SDS011;13600;50.816;4.416;2022-11-03T08:35:45;11.38;;;2.28;;
25752;SDS011;13600;50.816;4.416;2022-11-03T08:38:10;15.48;;;3.75;;
25752;SDS011;13600;50.816;4.416;2022-11-03T08:40:36;8.90;;;2.95;;
25752;SDS011;13600;50.816;4.416;2022-11-03T08:43:02;16.55;;;2.97;;
25752;SDS011;13600;50.816;4.416;2022-11-03T08:45:29;15.48;;;2.58;;
25752;SDS011;13600;50.816;4.416;2022-11-03T08:47:55;17.00;;;4.60;;
25752;SDS011;13600;50.816;4.416;2022-11-03T08:50:20;13.30;;;3.42;;
25752;SDS011;13600;50.816;4.416;2022-11-03T08:52:46;14.88;;;3.55;;
25752;SDS011;13600;50.816;4.416;2022-11-03T08:55:13;15.90;;;4.47;;
25752;SDS011;13600;50.816;4.416;2022-11-03T08:57:39;16.98;;;6.07;;
25752;SDS011;13600;50.816;4.416;2022-11-03T09:00:05;22.23;;;6.47;;
25752;SDS011;13600;50.816;4.416;2022-11-03T09:02:31;20.33;;;3.78;;
25752;SDS011;13600;50.816;4.416;2022-11-03T09:04:57;14.65;;;5.25;;
25752;SDS011;13600;50.816;4.416;2022-11-03T09:07:23;16.77;;;3.97;;
25752;SDS011;13600;50.816;4.416;2022-11-03T09:09:49;13.23;;;4.15;;
25752;SDS011;13600;50.816;4.416;2022-11-03T09:12:14;10.10;;;3.63;;
25752;SDS011;13600;50.816;4.416;2022-11-03T09:14:40;13.23;;;5.00;;
25752;SDS011;13600;50.816;4.416;2022-11-03T09:17:06;9.90;;;3.78;;
25752;SDS011;13600;50.816;4.416;2022-11-03T09:19:32;16.25;;;3.20;;
25752;SDS011;13600;50.816;4.416;2022-11-03T09:21:57;11.23;;;3.08;;
25752;SDS011;13600;50.816;4.416;2022-11-03T09:24:24;15.20;;;3.22;;
25752;SDS011;13600;50.816;4.416;2022-11-03T09:26:50;10.98;;;2.80;;
25752;SDS011;13600;50.816;4.416;2022-11-03T09:29:16;13.23;;;3.83;;
25752;SDS011;13600;50.816;4.416;2022-11-03T09:31:41;15.30;;;3.08;;
25752;SDS011;13600;50.816;4.416;2022-11-03T09:34:07;17.08;;;3.10;;
25752;SDS011;13600;50.816;4.416;2022-11-03T09:36:33;12.50;;;2.85;;
25752;SDS011;13600;50.816;4.416;2022-11-03T09:38:58;10.23;;;3.40;;
25752;SDS011;13600;50.816;4.416;2022-11-03T09:41:24;10.05;;;2.90;;
25752;SDS011;13600;50.816;4.416;2022-11-03T09:43:50;12.07;;;2.97;;
25752;SDS011;13600;50.816;4.416;2022-11-03T09:46:16;8.70;;;2.40;;
25752;SDS011;13600;50.816;4.416;2022-11-03T09:48:42;16.25;;;3.67;;
25752;SDS011;13600;50.816;4.416;2022-11-03T09:51:09;10.70;;;4.68;;
25752;SDS011;13600;50.816;4.416;2022-11-03T09:53:37;6.63;;;2.55;;
25752;SDS011;13600;50.816;4.416;2022-11-03T09:56:03;12.18;;;3.42;;
25752;SDS011;13600;50.816;4.416;2022-11-03T09:58:29;12.43;;;3.47;;
25752;SDS011;13600;50.816;4.416;2022-11-03T10:00:59;13.77;;;2.80;;
25752;SDS011;13600;50.816;4.416;2022-11-03T10:03:25;13.00;;;2.90;;
25752;SDS011;13600;50.816;4.416;2022-11-03T10:05:50;11.27;;;3.53;;
25752;SDS011;13600;50.816;4.416;2022-11-03T10:08:20;14.32;;;2.50;;
25752;SDS011;13600;50.816;4.416;2022-11-03T10:10:49;7.50;;;2.30;;
25752;SDS011;13600;50.816;4.416;2022-11-03T10:13:27;12.50;;;2.17;;
25752;SDS011;13600;50.816;4.416;2022-11-03T10:15:55;9.18;;;2.08;;
25752;SDS011;13600;50.816;4.416;2022-11-03T10:18:23;13.18;;;2.58;;
25752;SDS011;13600;50.816;4.416;2022-11-03T10:20:51;7.05;;;1.80;;
25752;SDS011;13600;50.816;4.416;2022-11-03T10:23:17;7.43;;;1.90;;
25752;SDS011;13600;50.816;4.416;2022-11-03T10:25:43;7.05;;;1.85;;
25752;SDS011;13600;50.816;4.416;2022-11-03T10:30:52;9.48;;;2.20;;
25752;SDS011;13600;50.816;4.416;2022-11-03T10:33:37;11.63;;;2.20;;
25752;SDS011;13600;50.816;4.416;2022-11-03T10:38:46;11.10;;;2.40;;
25752;SDS011;13600;50.816;4.416;2022-11-03T10:41:16;8.57;;;1.80;;
25752;SDS011;13600;50.816;4.416;2022-11-03T10:46:54;6.75;;;2.03;;
25752;SDS011;13600;50.816;4.416;2022-11-03T10:49:23;11.82;;;2.17;;
25752;SDS011;13600;50.816;4.416;2022-11-03T10:51:50;15.15;;;2.25;;
25752;SDS011;13600;50.816;4.416;2022-11-03T10:54:18;9.98;;;2.00;;
25752;SDS011;13600;50.816;4.416;2022-11-03T10:56:45;10.70;;;2.15;;
25752;SDS011;13600;50.816;4.416;2022-11-03T10:59:18;13.55;;;2.40;;
25752;SDS011;13600;50.816;4.416;2022-11-03T11:01:48;6.68;;;2.00;;
25752;SDS011;13600;50.816;4.416;2022-11-03T11:04:14;10.38;;;1.77;;
25752;SDS011;13600;50.816;4.416;2022-11-03T11:06:42;10.73;;;2.17;;
25752;SDS011;13600;50.816;4.416;2022-11-03T11:09:08;8.90;;;1.70;;
25752;SDS011;13600;50.816;4.416;2022-11-03T11:11:36;7.30;;;2.03;;
25752;SDS011;13600;50.816;4.416;2022-11-03T11:14:21;5.22;;;1.35;;
25752;SDS011;13600;50.816;4.416;2022-11-03T11:17:00;7.38;;;1.80;;
25752;SDS011;13600;50.816;4.416;2022-11-03T11:19:28;7.50;;;2.20;;
25752;SDS011;13600;50.816;4.416;2022-11-03T11:25:05;13.40;;;1.80;;
25752;SDS011;13600;50.816;4.416;2022-11-03T11:29:59;10.23;;;1.80;;
25752;SDS011;13600;50.816;4.416;2022-11-03T11:35:07;9.13;;;2.00;;
25752;SDS011;13600;50.816;4.416;2022-11-03T11:37:35;7.88;;;1.70;;
25752;SDS011;13600;50.816;4.416;2022-11-03T11:40:02;6.97;;;1.63;;
25752;SDS011;13600;50.816;4.416;2022-11-03T11:48:38;7.07;;;1.70;;
25752;SDS011;13600;50.816;4.416;2022-11-03T11:51:06;4.88;;;1.70;;
25752;SDS011;13600;50.816;4.416;2022-11-03T11:53:36;7.95;;;1.73;;
25752;SDS011;13600;50.816;4.416;2022-11-03T11:56:07;7.88;;;1.63;;
25752;SDS011;13600;50.816;4.416;2022-11-03T12:01:21;4.88;;;1.30;;
25752;SDS011;13600;50.816;4.416;2022-11-03T12:03:53;7.13;;;1.70;;
25752;SDS011;13600;50.816;4.416;2022-11-03T12:06:43;8.20;;;1.90;;
25752;SDS011;13600;50.816;4.416;2022-11-03T12:11:42;7.40;;;1.60;;
25752;SDS011;13600;50.816;4.416;2022-11-03T12:16:51;7.45;;;2.03;;
25752;SDS011;13600;50.816;4.416;2022-11-03T12:19:30;7.07;;;1.75;;
25752;SDS011;13600;50.816;4.416;2022-11-03T12:21:59;8.50;;;1.80;;
25752;SDS011;13600;50.816;4.416;2022-11-03T12:26:59;6.47;;;1.45;;
25752;SDS011;13600;50.816;4.416;2022-11-03T12:29:26;7.38;;;1.67;;
25752;SDS011;13600;50.816;4.416;2022-11-03T12:31:51;7.07;;;1.80;;
25752;SDS011;13600;50.816;4.416;2022-11-03T12:34:17;7.25;;;1.40;;
25752;SDS011;13600;50.816;4.416;2022-11-03T12:36:43;7.03;;;1.85;;
25752;SDS011;13600;50.816;4.416;2022-11-03T12:39:09;14.27;;;2.78;;
25752;SDS011;13600;50.816;4.416;2022-11-03T12:41:34;15.85;;;3.30;;
25752;SDS011;13600;50.816;4.416;2022-11-03T12:44:00;15.73;;;3.17;;
25752;SDS011;13600;50.816;4.416;2022-11-03T12:46:26;7.90;;;2.47;;
25752;SDS011;13600;50.816;4.416;2022-11-03T12:48:51;7.82;;;2.58;;
25752;SDS011;13600;50.816;4.416;2022-11-03T12:51:21;7.03;;;2.10;;
25752;SDS011;13600;50.816;4.416;2022-11-03T12:53:47;8.80;;;2.17;;
25752;SDS011;13600;50.816;4.416;2022-11-03T12:56:14;13.43;;;3.55;;
25752;SDS011;13600;50.816;4.416;2022-11-03T12:58:40;7.70;;;2.25;;
25752;SDS011;13600;50.816;4.416;2022-11-03T13:01:06;10.73;;;2.72;;
25752;SDS011;13600;50.816;4.416;2022-11-03T13:03:32;9.95;;;2.60;;
25752;SDS011;13600;50.816;4.416;2022-11-03T13:06:00;9.05;;;2.90;;
25752;SDS011;13600;50.816;4.416;2022-11-03T13:08:28;15.18;;;4.78;;
25752;SDS011;13600;50.816;4.416;2022-11-03T13:10:54;9.10;;;3.10;;
25752;SDS011;13600;50.816;4.416;2022-11-03T13:13:20;10.75;;;3.15;;
25752;SDS011;13600;50.816;4.416;2022-11-03T13:15:45;8.38;;;2.80;;
25752;SDS011;13600;50.816;4.416;2022-11-03T13:18:11;7.57;;;2.70;;
25752;SDS011;13600;50.816;4.416;2022-11-03T13:20:37;9.32;;;3.05;;
25752;SDS011;13600;50.816;4.416;2022-11-03T13:23:03;9.85;;;2.67;;
25752;SDS011;13600;50.816;4.416;2022-11-03T13:25:29;9.43;;;2.63;;
25752;SDS011;13600;50.816;4.416;2022-11-03T13:27:54;9.40;;;2.85;;
25752;SDS011;13600;50.816;4.416;2022-11-03T13:30:21;12.85;;;2.90;;
25752;SDS011;13600;50.816;4.416;2022-11-03T13:32:47;12.65;;;3.00;;
25752;SDS011;13600;50.816;4.416;2022-11-03T13:35:13;8.38;;;2.45;;
25752;SDS011;13600;50.816;4.416;2022-11-03T13:37:39;5.68;;;2.58;;
25752;SDS011;13600;50.816;4.416;2022-11-03T13:40:06;9.18;;;2.55;;
25752;SDS011;13600;50.816;4.416;2022-11-03T13:42:32;7.93;;;2.60;;
25752;SDS011;13600;50.816;4.416;2022-11-03T13:44:58;8.10;;;2.67;;
25752;SDS011;13600;50.816;4.416;2022-11-03T13:47:23;9.57;;;2.55;;
25752;SDS011;13600;50.816;4.416;2022-11-03T13:49:49;10.40;;;3.00;;
25752;SDS011;13600;50.816;4.416;2022-11-03T13:52:17;9.77;;;2.50;;
25752;SDS011;13600;50.816;4.416;2022-11-03T13:54:43;10.05;;;2.70;;
25752;SDS011;13600;50.816;4.416;2022-11-03T13:57:09;9.23;;;3.30;;
25752;SDS011;13600;50.816;4.416;2022-11-03T13:59:35;5.95;;;2.72;;
25752;SDS011;13600;50.816;4.416;2022-11-03T14:02:02;11.38;;;3.20;;
25752;SDS011;13600;50.816;4.416;2022-11-03T14:04:31;8.43;;;2.55;;
25752;SDS011;13600;50.816;4.416;2022-11-03T14:06:57;8.40;;;2.67;;
25752;SDS011;13600;50.816;4.416;2022-11-03T14:09:23;12.05;;;3.25;;
25752;SDS011;13600;50.816;4.416;2022-11-03T14:11:48;9.13;;;2.65;;
25752;SDS011;13600;50.816;4.416;2022-11-03T14:14:33;8.25;;;2.60;;
25752;SDS011;13600;50.816;4.416;2022-11-03T14:16:58;7.97;;;2.65;;
25752;SDS011;13600;50.816;4.416;2022-11-03T14:19:24;16.10;;;6.95;;
25752;SDS011;13600;50.816;4.416;2022-11-03T14:21:50;8.27;;;3.33;;
25752;SDS011;13600;50.816;4.416;2022-11-03T14:24:16;5.65;;;2.40;;
25752;SDS011;13600;50.816;4.416;2022-11-03T14:26:41;5.75;;;2.70;;
25752;SDS011;13600;50.816;4.416;2022-11-03T14:29:07;11.68;;;7.57;;
25752;SDS011;13600;50.816;4.416;2022-11-03T14:31:33;8.85;;;3.47;;
25752;SDS011;13600;50.816;4.416;2022-11-03T14:33:58;9.63;;;2.70;;
25752;SDS011;13600;50.816;4.416;2022-11-03T14:36:24;9.63;;;3.60;;
25752;SDS011;13600;50.816;4.416;2022-11-03T14:38:49;9.23;;;4.38;;
25752;SDS011;13600;50.816;4.416;2022-11-03T14:41:15;11.65;;;2.90;;
25752;SDS011;13600;50.816;4.416;2022-11-03T14:46:26;7.28;;;2.90;;
25752;SDS011;13600;50.816;4.416;2022-11-03T14:48:52;10.50;;;3.20;;
25752;SDS011;13600;50.816;4.416;2022-11-03T14:51:18;4.93;;;2.60;;
25752;SDS011;13600;50.816;4.416;2022-11-03T14:53:44;9.38;;;3.47;;
25752;SDS011;13600;50.816;4.416;2022-11-03T14:56:09;12.02;;;3.60;;
25752;SDS011;13600;50.816;4.416;2022-11-03T14:58:36;7.70;;;3.20;;
25752;SDS011;13600;50.816;4.416;2022-11-03T15:01:01;6.05;;;3.00;;
25752;SDS011;13600;50.816;4.416;2022-11-03T15:03:27;21.05;;;10.35;;
25752;SDS011;13600;50.816;4.416;2022-11-03T15:05:52;6.72;;;3.50;;
25752;SDS011;13600;50.816;4.416;2022-11-03T15:08:20;13.77;;;2.85;;
25752;SDS011;13600;50.816;4.416;2022-11-03T15:10:46;10.27;;;3.15;;
25752;SDS011;13600;50.816;4.416;2022-11-03T15:13:12;7.90;;;2.97;;
25752;SDS011;13600;50.816;4.416;2022-11-03T15:15:37;5.45;;;2.45;;
25752;SDS011;13600;50.816;4.416;2022-11-03T15:18:05;8.73;;;3.17;;
25752;SDS011;13600;50.816;4.416;2022-11-03T15:20:31;7.15;;;3.60;;
25752;SDS011;13600;50.816;4.416;2022-11-03T15:22:59;8.77;;;3.67;;
25752;SDS011;13600;50.816;4.416;2022-11-03T15:25:26;10.63;;;3.47;;
25752;SDS011;13600;50.816;4.416;2022-11-03T15:27:52;8.75;;;3.38;;
25752;SDS011;13600;50.816;4.416;2022-11-03T15:30:17;10.27;;;3.83;;
25752;SDS011;13600;50.816;4.416;2022-11-03T15:32:43;10.05;;;4.10;;
25752;SDS011;13600;50.816;4.416;2022-11-03T15:35:08;8.75;;;3.55;;
25752;SDS011;13600;50.816;4.416;2022-11-03T15:37:34;11.00;;;4.03;;
25752;SDS011;13600;50.816;4.416;2022-11-03T15:40:00;7.13;;;3.65;;
25752;SDS011;13600;50.816;4.416;2022-11-03T15:42:27;11.02;;;3.70;;
25752;SDS011;13600;50.816;4.416;2022-11-03T15:44:52;8.48;;;4.00;;
25752;SDS011;13600;50.816;4.416;2022-11-03T15:47:18;7.55;;;4.13;;
25752;SDS011;13600;50.816;4.416;2022-11-03T15:49:44;9.00;;;4.28;;
25752;SDS011;13600;50.816;4.416;2022-11-03T15:52:10;9.25;;;4.07;;
25752;SDS011;13600;50.816;4.416;2022-11-03T15:54:35;12.07;;;4.57;;
25752;SDS011;13600;50.816;4.416;2022-11-03T15:57:01;10.57;;;4.47;;
25752;SDS011;13600;50.816;4.416;2022-11-03T15:59:26;9.68;;;4.25;;
25752;SDS011;13600;50.816;4.416;2022-11-03T16:01:52;16.92;;;4.80;;
25752;SDS011;13600;50.816;4.416;2022-11-03T16:04:18;14.60;;;5.57;;
25752;SDS011;13600;50.816;4.416;2022-11-03T16:06:44;15.10;;;5.20;;
25752;SDS011;13600;50.816;4.416;2022-11-03T16:09:09;13.30;;;5.70;;